全部
Bad Wörishofen-Nord Airport EDNH 天氣
There is no TAF data available at EDNH. Showing TAF data for EDJA (18 mi W).
FMM終端機場天氣預報(EDNH無資料)
| Date | Time (CEST) | Flight Rules | Wind Dir. | Speed | Type | Height AGL (ft) | Visibility | Remarks | ||||||
|---|---|---|---|---|---|---|---|---|---|---|---|---|---|---|
| 03-五月 | 04:00 | No data | No data | No data | No data | |||||||||
| 03-五月 | 03:00 | No data | No data | No data | No data | |||||||||
| 03-五月 | 02:00 | No data | No data | No data | No data | |||||||||
There is no METAR data available at EDNH. Showing METAR data for ETSL (16 mi NE).
ETSL近期METAR歷史資料(EDNH無資料)
| Date | Time (CEST) | Flight Rules | Wind Dir. | Speed | Type | Height AGL (ft) | Visibility | Temp (°C) | Temp (°F) | Dew Point (°C) | Dew Point (°F) | Rel. Humid. | Pressure | Density Altitude | Remarks |
|---|---|---|---|---|---|---|---|---|---|---|---|---|---|---|---|
| gap in available data | |||||||||||||||
| 03-五月 | 02:20 | VFR | 220° | 3 kt | 10000 meters | 9° | 48° | 4° | 39° | 71% | 1016 mb | 1,257 ft | |||
| 03-五月 | 01:20 | VFR | 260° | 1 kt | 10000 meters | 10° | 50° | 4° | 39° | 66% | 1017 mb | 1,348 ft | |||
| 03-五月 | 00:20 | VFR | Variable | 1 kt | 10000 meters | 13° | 55° | 3° | 37° | 51% | 1017 mb | 1,708 ft | |||
| 02-五月 | 23:20 | VFR | 150° | 5 kt | 10000 meters | 14° | 57° | 2° | 35° | 44% | 1017 mb | 1,828 ft | |||
| 02-五月 | 22:20 | VFR | 160° | 3 kt | 10000 meters | 15° | 59° | 4° | 39° | 48% | 1018 mb | 1,918 ft | |||
| 02-五月 | 21:20 | VFR | 140° | 3 kt | 10000 meters | 17° | 62° | 4° | 39° | 42% | 1018 mb | 2,158 ft | |||
| 02-五月 | 20:20 | VFR | 120° | 3 kt | 10000 meters | 19° | 66° | 5° | 41° | 40% | 1017 mb | 2,428 ft | |||
| 02-五月 | 19:20 | VFR | Variable | 3 kt | 10000 meters | 22° | 71° | 6° | 42° | 35% | 1017 mb | 2,788 ft | |||
| 02-五月 | 18:20 | VFR | Variable | 2 kt | 10000 meters | 24° | 75° | 1° | 33° | 22% | 1018 mb | 2,998 ft | |||
| 02-五月 | 17:20 | VFR | 50° | 4 kt | 10000 meters | 24° | 75° | 2° | 35° | 24% | 1018 mb | 2,998 ft | |||
| 02-五月 | 16:20 | VFR | 40° | 5 kt | 10000 meters | 24° | 75° | 2° | 35° | 24% | 1019 mb | 2,969 ft | |||
| 02-五月 | 15:20 | VFR | 40° | 5 kt | 10000 meters | 23° | 73° | 3° | 37° | 27% | 1020 mb | 2,819 ft | |||
| 02-五月 | 14:20 | VFR | 20° | 3 kt | 10000 meters | 23° | 73° | 2° | 35° | 25% | 1021 mb | 2,789 ft | |||
| 02-五月 | 13:20 | VFR | 330° | 6 kt | 10000 meters | 22° | 71° | 3° | 37° | 29% | 1021 mb | 2,669 ft | |||
| 02-五月 | 12:20 | VFR | 270° | 5 kt | 10000 meters | 21° | 69° | 2° | 35° | 28% | 1022 mb | 2,520 ft | |||
| 02-五月 | 11:20 | VFR | 290° | 5 kt | 10000 meters | 20° | 68° | 4° | 39° | 35% | 1023 mb | 2,370 ft | |||
| 02-五月 | 10:20 | VFR | 290° | 6 kt | 10000 meters | 17° | 62° | 4° | 39° | 42% | 1023 mb | 2,010 ft | |||
| 02-五月 | 09:20 | VFR | Variable | 3 kt | 10000 meters | 14° | 57° | 4° | 39° | 51% | 1023 mb | 1,650 ft | |||
| 02-五月 | 08:20 | VFR | 200° | 2 kt | 10000 meters | 10° | 50° | 3° | 37° | 62% | 1023 mb | 1,170 ft | |||
| 02-五月 | 07:20 | VFR | 170° | 2 kt | 10000 meters | 6° | 42° | 2° | 35° | 75% | 1023 mb | 690 ft | |||
| 02-五月 | 06:20 | VFR | 200° | 2 kt | 10000 meters | 1° | 33° | 0° | 32° | 93% | 1023 mb | 90 ft | |||
| 02-五月 | 05:20 | VFR | 230° | 2 kt | 10000 meters | 2° | 35° | 0° | 32° | 87% | 1023 mb | 210 ft | |||
| 02-五月 | 04:20 | VFR | 200° | 2 kt | 10000 meters | 2° | 35° | 0° | 32° | 87% | 1023 mb | 210 ft | |||
| 02-五月 | 03:20 | VFR | Variable | 3 kt | 10000 meters | 5° | 41° | 1° | 33° | 75% | 1024 mb | 541 ft | |||
登入
| 您的瀏覽器不支援. 升級您的瀏覽器 |
